createdAt,value
2022-11-08T00:01:41.614Z,58.75
2022-11-08T00:03:43.636Z,59.11
2022-11-08T00:06:03.935Z,59.15
2022-11-08T00:08:24.465Z,59.55
2022-11-08T00:10:45.028Z,59.42
2022-11-08T00:13:05.695Z,59.56
2022-11-08T00:15:08.474Z,59.71
2022-11-08T00:17:10.775Z,59.67
2022-11-08T00:19:12.923Z,59.67
2022-11-08T00:21:15.119Z,60.39
2022-11-08T00:23:17.133Z,60.13
2022-11-08T00:25:19.610Z,60.14
2022-11-08T00:27:23.562Z,60.31
2022-11-08T00:29:25.512Z,60.01
2022-11-08T00:31:27.914Z,59.77
2022-11-08T00:33:30.865Z,59.86
2022-11-08T00:35:32.856Z,59.71
2022-11-08T00:37:34.456Z,60.08
2022-11-08T00:39:36.517Z,59.98
2022-11-08T00:41:43.729Z,60.69
2022-11-08T00:43:45.967Z,60.36
2022-11-08T00:45:48.042Z,60.27
2022-11-08T00:47:50.037Z,60.79
2022-11-08T00:49:52.083Z,60.62
2022-11-08T00:51:54.279Z,61.00
2022-11-08T00:53:56.373Z,61.39
2022-11-08T00:56:03.460Z,61.48
2022-11-08T00:58:05.641Z,61.86
2022-11-08T01:00:08.502Z,61.42
2022-11-08T01:02:10.627Z,61.85
2022-11-08T01:04:14.647Z,62.96
2022-11-08T01:06:18.553Z,62.57
2022-11-08T01:08:22.553Z,62.61
2022-11-08T01:10:24.668Z,62.65
2022-11-08T01:12:26.713Z,62.25
2022-11-08T01:14:28.902Z,62.56
2022-11-08T01:16:33.524Z,62.35
2022-11-08T01:18:35.832Z,62.27
2022-11-08T01:20:42.234Z,62.67
2022-11-08T01:22:44.171Z,61.70
2022-11-08T01:24:46.272Z,62.34
2022-11-08T01:26:51.096Z,61.97
2022-11-08T01:28:54.154Z,61.95
2022-11-08T01:30:56.300Z,62.22
2022-11-08T01:32:58.675Z,62.04
2022-11-08T01:35:00.633Z,62.43
2022-11-08T01:37:02.656Z,62.19
2022-11-08T01:39:04.326Z,62.47
2022-11-08T01:41:07.202Z,62.20
2022-11-08T01:43:31.343Z,62.32
2022-11-08T01:46:11.119Z,62.05
2022-11-08T01:48:13.161Z,62.94
2022-11-08T01:50:18.607Z,62.76
2022-11-08T01:52:40.462Z,63.27
2022-11-08T01:54:57.506Z,62.78
2022-11-08T01:57:02.803Z,63.30
2022-11-08T01:59:08.144Z,63.34
2022-11-08T02:01:10.605Z,63.29
2022-11-08T02:03:16.826Z,63.19
2022-11-08T02:05:26.421Z,63.40
2022-11-08T02:07:31.256Z,63.64
2022-11-08T02:09:36.340Z,63.70
2022-11-08T02:11:46.496Z,63.90
2022-11-08T02:13:48.461Z,64.11
2022-11-08T02:15:51.102Z,64.43
2022-11-08T02:17:55.026Z,63.95
2022-11-08T02:19:57.053Z,63.98
2022-11-08T02:22:03.725Z,63.95
2022-11-08T02:24:11.160Z,63.99
2022-11-08T02:26:14.478Z,64.14
2022-11-08T02:28:16.915Z,64.15
2022-11-08T02:30:19.286Z,63.91
2022-11-08T02:32:21.401Z,63.91
2022-11-08T02:34:38.005Z,64.09
2022-11-08T02:36:40.525Z,64.63
2022-11-08T02:38:47.239Z,65.07
2022-11-08T02:40:53.982Z,64.89
2022-11-08T02:42:55.990Z,64.83
2022-11-08T02:44:58.369Z,64.84
2022-11-08T02:47:00.290Z,64.85
2022-11-08T02:49:02.268Z,64.34
2022-11-08T02:51:04.580Z,64.96
2022-11-08T02:53:06.885Z,64.77
2022-11-08T02:55:08.941Z,64.99
2022-11-08T02:57:11.038Z,65.17
2022-11-08T02:59:13.290Z,64.65
2022-11-08T03:01:15.417Z,64.09
2022-11-08T03:03:17.741Z,64.44
2022-11-08T03:05:21.329Z,64.52
2022-11-08T03:07:25.014Z,64.52
2022-11-08T03:09:29.780Z,64.95
2022-11-08T03:11:38.297Z,64.74
2022-11-08T03:13:40.341Z,64.47
2022-11-08T03:15:43.369Z,64.28
2022-11-08T03:17:45.343Z,64.38
2022-11-08T03:19:47.452Z,63.96
2022-11-08T03:21:49.880Z,64.51
2022-11-08T03:23:51.996Z,64.93
2022-11-08T03:25:54.776Z,65.73
2022-11-08T03:27:56.901Z,66.36
2022-11-08T03:29:58.522Z,66.40
2022-11-08T03:32:00.858Z,67.12
2022-11-08T03:34:02.776Z,66.96
2022-11-08T03:36:05.270Z,67.19
2022-11-08T03:38:07.245Z,67.47
2022-11-08T03:40:09.935Z,67.69
2022-11-08T03:42:11.578Z,67.43
2022-11-08T03:44:23.755Z,67.27
2022-11-08T03:46:25.736Z,66.71
2022-11-08T03:48:27.906Z,66.54
2022-11-08T03:50:29.954Z,66.81
2022-11-08T03:52:31.976Z,66.52
2022-11-08T03:54:34.277Z,67.25
2022-11-08T03:56:36.204Z,67.41
2022-11-08T03:58:38.372Z,68.59
2022-11-08T04:00:40.606Z,69.65
2022-11-08T04:02:42.915Z,70.36
2022-11-08T04:04:45.020Z,70.20
2022-11-08T04:06:47.330Z,70.58
2022-11-08T04:08:49.334Z,70.46
2022-11-08T04:10:55.360Z,70.51
2022-11-08T04:13:18.484Z,70.53
2022-11-08T04:15:22.572Z,70.46
2022-11-08T04:17:44.517Z,70.40
2022-11-08T04:20:05.239Z,70.54
2022-11-08T04:22:10.341Z,70.05
2022-11-08T04:24:12.676Z,69.90
2022-11-08T04:26:14.975Z,70.28
2022-11-08T04:28:17.407Z,69.79
2022-11-08T04:30:19.599Z,70.03
2022-11-08T04:32:21.770Z,69.57
2022-11-08T04:34:23.727Z,69.66
2022-11-08T04:36:25.770Z,70.06
2022-11-08T04:38:27.860Z,70.00
2022-11-08T04:40:32.008Z,70.12
2022-11-08T04:42:33.959Z,70.07
2022-11-08T04:44:40.464Z,70.11
2022-11-08T04:46:42.430Z,70.07
2022-11-08T04:48:49.790Z,70.51
2022-11-08T04:50:51.847Z,69.67
2022-11-08T04:52:56.778Z,69.07
2022-11-08T04:54:58.871Z,68.95
2022-11-08T04:57:00.910Z,68.60
2022-11-08T04:59:02.968Z,68.22
2022-11-08T05:01:06.944Z,67.95
2022-11-08T05:03:10.259Z,67.97
2022-11-08T05:05:12.329Z,67.72
2022-11-08T05:07:14.713Z,67.54
2022-11-08T05:09:16.741Z,68.08
2022-11-08T05:11:24.169Z,67.95
2022-11-08T05:13:26.367Z,68.30
2022-11-08T05:15:28.736Z,68.16
2022-11-08T05:17:30.834Z,68.17
2022-11-08T05:19:50.993Z,68.84
2022-11-08T05:22:11.375Z,68.50
2022-11-08T05:24:15.823Z,68.58
2022-11-08T05:26:20.045Z,69.30
2022-11-08T05:28:22.618Z,69.24
2022-11-08T05:30:24.625Z,69.02
2022-11-08T05:32:26.688Z,69.39
2022-11-08T05:34:30.083Z,69.19
2022-11-08T05:36:32.087Z,69.39
2022-11-08T05:38:35.025Z,69.43
2022-11-08T05:40:36.979Z,70.06
2022-11-08T05:42:39.121Z,70.32
2022-11-08T05:44:41.286Z,70.21
2022-11-08T05:46:43.338Z,69.68
2022-11-08T05:48:50.173Z,70.19
2022-11-08T05:50:52.551Z,70.53
2022-11-08T05:52:55.316Z,71.06
2022-11-08T05:54:57.498Z,71.50
2022-11-08T05:56:59.574Z,72.63
2022-11-08T05:59:01.603Z,73.78
2022-11-08T06:01:07.199Z,74.10
2022-11-08T06:03:09.710Z,74.30
2022-11-08T06:05:12.133Z,74.65
2022-11-08T06:07:15.023Z,74.87
2022-11-08T06:09:17.139Z,75.48
2022-11-08T06:11:23.867Z,75.01
2022-11-08T06:13:26.017Z,75.24
2022-11-08T06:15:28.155Z,75.20
2022-11-08T06:17:30.476Z,76.10
2022-11-08T06:19:32.640Z,75.95
2022-11-08T06:21:38.831Z,75.68
2022-11-08T06:23:41.627Z,76.33
2022-11-08T06:25:47.395Z,77.14
2022-11-08T06:27:49.691Z,77.10
2022-11-08T06:29:51.929Z,77.99
2022-11-08T06:31:54.246Z,78.73
2022-11-08T06:33:56.264Z,78.87
2022-11-08T06:35:58.485Z,78.57
2022-11-08T06:38:04.609Z,78.96
2022-11-08T06:40:11.192Z,78.89
2022-11-08T06:42:14.473Z,79.43
2022-11-08T06:44:16.752Z,79.83
2022-11-08T06:46:18.505Z,80.09
2022-11-08T06:48:20.123Z,80.51
2022-11-08T06:50:21.779Z,79.96
2022-11-08T06:52:23.404Z,79.25
2022-11-08T06:54:26.870Z,78.51
2022-11-08T06:56:30.229Z,78.28
2022-11-08T06:58:32.328Z,78.37
2022-11-08T07:00:34.124Z,78.41
2022-11-08T07:02:35.815Z,78.48
2022-11-08T07:04:37.669Z,78.13
2022-11-08T07:06:39.301Z,78.06
2022-11-08T07:08:40.929Z,78.11
2022-11-08T07:10:42.532Z,78.28
2022-11-08T07:12:44.432Z,78.42
2022-11-08T07:14:46.041Z,77.96
2022-11-08T07:16:47.955Z,77.99
2022-11-08T07:18:51.464Z,78.10
2022-11-08T07:20:53.220Z,78.08
2022-11-08T07:22:56.159Z,78.00
2022-11-08T07:24:58.165Z,77.35
2022-11-08T07:26:59.825Z,77.46
2022-11-08T07:29:01.512Z,77.57
2022-11-08T07:31:04.871Z,77.59
2022-11-08T07:33:06.507Z,77.64
2022-11-08T07:35:08.382Z,77.77
2022-11-08T07:37:10.111Z,77.09
2022-11-08T07:39:11.811Z,77.07
2022-11-08T07:41:13.505Z,76.60
2022-11-08T07:43:16.106Z,76.46
2022-11-08T07:45:17.769Z,75.87
2022-11-08T07:47:19.388Z,75.73
2022-11-08T07:49:21.120Z,75.25
2022-11-08T07:51:22.844Z,75.33
2022-11-08T07:53:24.731Z,75.34
2022-11-08T07:55:27.577Z,75.21
2022-11-08T07:57:29.653Z,74.71
2022-11-08T07:59:31.256Z,74.77
2022-11-08T08:01:37.967Z,74.67
2022-11-08T08:03:39.868Z,74.68
2022-11-08T08:05:43.905Z,74.71
2022-11-08T08:07:45.588Z,74.50
2022-11-08T08:09:47.376Z,74.03
2022-11-08T08:11:49.142Z,74.26
2022-11-08T08:13:50.827Z,73.97
2022-11-08T08:15:52.545Z,73.83
2022-11-08T08:17:54.209Z,73.63
2022-11-08T08:19:55.828Z,73.49
2022-11-08T08:21:57.536Z,73.29
2022-11-08T08:23:59.279Z,73.18
2022-11-08T08:26:03.410Z,72.94
2022-11-08T08:28:06.070Z,72.93
2022-11-08T08:30:08.325Z,72.06
2022-11-08T08:32:09.965Z,71.76
2022-11-08T08:34:11.812Z,71.85
2022-11-08T08:36:13.601Z,71.33
2022-11-08T08:38:15.263Z,71.55
2022-11-08T08:40:17.069Z,71.36
2022-11-08T08:42:18.717Z,71.01
2022-11-08T08:44:20.430Z,70.92
2022-11-08T08:46:22.085Z,70.74
2022-11-08T08:48:23.733Z,70.22
2022-11-08T08:50:27.988Z,70.08
2022-11-08T08:52:29.678Z,69.86
2022-11-08T08:54:31.397Z,70.21
2022-11-08T08:56:33.142Z,70.15
2022-11-08T08:58:35.049Z,69.52
2022-11-08T09:03:09.665Z,69.58
2022-11-08T09:05:13.211Z,69.81
2022-11-08T09:07:15.387Z,69.60
2022-11-08T09:09:17.108Z,69.63
2022-11-08T09:11:18.750Z,69.53
2022-11-08T09:13:21.073Z,69.93
2022-11-08T09:15:22.909Z,69.45
2022-11-08T09:17:24.613Z,69.21
2022-11-08T09:19:26.463Z,69.50
2022-11-08T09:21:40.449Z,69.18
2022-11-08T09:23:42.444Z,68.70
2022-11-08T09:25:44.112Z,68.75
2022-11-08T09:27:45.906Z,68.64
2022-11-08T09:29:47.519Z,68.81
2022-11-08T09:31:49.869Z,68.36
2022-11-08T09:33:51.702Z,68.27
2022-11-08T09:35:54.006Z,68.83
2022-11-08T09:37:55.904Z,68.63
2022-11-08T09:39:57.592Z,68.50
2022-11-08T09:42:28.345Z,68.89
2022-11-08T09:45:15.388Z,68.62
2022-11-08T09:47:23.738Z,68.77
2022-11-08T09:49:41.350Z,68.53
2022-11-08T09:51:47.986Z,68.49
2022-11-08T09:53:56.740Z,68.05
2022-11-08T09:56:19.564Z,68.25
2022-11-08T09:59:01.980Z,67.81
2022-11-08T10:01:04.583Z,67.62
2022-11-08T10:03:09.254Z,67.66
2022-11-08T10:05:17.729Z,67.43
2022-11-08T10:07:33.350Z,67.62
2022-11-08T10:09:48.836Z,67.17
2022-11-08T10:12:07.639Z,67.39
2022-11-08T10:14:18.498Z,67.24
2022-11-08T10:16:30.195Z,67.20
2022-11-08T10:18:45.002Z,66.76
2022-11-08T10:20:46.642Z,66.36
2022-11-08T10:23:11.604Z,66.48
2022-11-08T10:25:24.685Z,66.09
2022-11-08T10:27:41.160Z,66.14
2022-11-08T10:29:45.798Z,66.29
2022-11-08T10:31:52.099Z,65.64
2022-11-08T10:33:56.270Z,66.15
2022-11-08T10:36:09.378Z,66.50
2022-11-08T10:38:20.061Z,66.58
2022-11-08T10:40:33.868Z,66.98
2022-11-08T10:42:44.372Z,66.87
2022-11-08T10:44:46.923Z,66.85
2022-11-08T10:46:57.339Z,67.47
2022-11-08T10:49:10.978Z,67.14
2022-11-08T10:51:12.592Z,67.41
2022-11-08T10:53:35.084Z,67.65
2022-11-08T10:55:47.838Z,67.62
2022-11-08T10:57:49.488Z,68.09
2022-11-08T10:59:52.352Z,69.19
2022-11-08T11:01:54.004Z,71.11
2022-11-08T11:03:55.632Z,72.05
2022-11-08T11:06:02.967Z,71.63
2022-11-08T11:08:07.612Z,71.93
2022-11-08T11:10:25.460Z,71.54
2022-11-08T11:12:27.216Z,70.80
2022-11-08T11:14:28.840Z,70.16
2022-11-08T11:16:30.528Z,70.42
2022-11-08T11:18:39.332Z,69.91
2022-11-08T11:20:41.007Z,69.22
2022-11-08T11:22:46.470Z,68.94
2022-11-08T11:24:52.727Z,68.96
2022-11-08T11:26:57.310Z,68.51
2022-11-08T11:29:04.807Z,68.16
2022-11-08T11:31:17.116Z,68.55
2022-11-08T11:33:25.276Z,68.01
2022-11-08T11:35:35.803Z,68.00
2022-11-08T11:37:46.822Z,67.62
2022-11-08T11:40:24.483Z,66.89
2022-11-08T11:42:45.803Z,66.68
2022-11-08T11:45:05.607Z,67.02
2022-11-08T11:47:21.484Z,67.71
2022-11-08T11:49:25.926Z,68.51
2022-11-08T11:51:38.107Z,67.83
2022-11-08T11:53:47.529Z,67.50
2022-11-08T11:56:15.200Z,66.87
2022-11-08T11:58:44.682Z,66.39
2022-11-08T12:00:56.019Z,66.08
2022-11-08T12:03:23.163Z,64.96
2022-11-08T12:05:43.280Z,65.00
2022-11-08T12:07:56.846Z,64.48
2022-11-08T12:10:07.427Z,64.43
2022-11-08T12:12:49.007Z,63.92
2022-11-08T12:15:02.926Z,62.98
2022-11-08T12:17:10.675Z,61.52
2022-11-08T12:19:29.616Z,60.77
2022-11-08T12:21:49.733Z,60.57
2022-11-08T12:24:22.413Z,60.08
2022-11-08T12:26:43.132Z,60.01
2022-11-08T12:29:12.828Z,59.83
2022-11-08T12:31:18.052Z,59.22
2022-11-08T12:33:43.634Z,60.05
2022-11-08T12:36:02.291Z,60.20
2022-11-08T12:38:18.167Z,60.18
2022-11-08T12:40:40.191Z,60.16
2022-11-08T12:43:21.709Z,61.03
2022-11-08T12:45:43.982Z,62.30
2022-11-08T12:48:18.328Z,64.58
2022-11-08T12:50:21.686Z,65.93
2022-11-08T12:52:23.293Z,65.78
2022-11-08T12:54:37.656Z,66.42
2022-11-08T12:56:43.997Z,66.39
2022-11-08T12:58:54.575Z,66.72
2022-11-08T13:01:07.910Z,66.39
2022-11-08T13:03:32.733Z,66.17
2022-11-08T13:05:52.492Z,65.74
2022-11-08T13:08:22.185Z,65.72
2022-11-08T13:10:39.198Z,65.52
2022-11-08T13:12:49.047Z,66.52
2022-11-08T13:14:51.040Z,65.97
2022-11-08T13:17:20.045Z,68.19
2022-11-08T13:19:29.856Z,68.74
2022-11-08T13:21:43.264Z,69.62
2022-11-08T13:23:44.932Z,70.47
2022-11-08T13:25:47.703Z,71.04
2022-11-08T13:27:49.777Z,71.24
2022-11-08T13:29:53.049Z,71.20
2022-11-08T13:32:02.401Z,71.89
2022-11-08T13:34:19.307Z,71.96
2022-11-08T13:36:41.821Z,73.00
2022-11-08T13:39:10.129Z,73.40
2022-11-08T13:41:20.364Z,72.98
2022-11-08T13:43:26.207Z,72.24
2022-11-08T13:45:33.668Z,71.44
2022-11-08T13:47:36.350Z,70.92
2022-11-08T13:49:38.024Z,70.78
2022-11-08T13:51:44.550Z,70.07
2022-11-08T13:53:54.458Z,71.38
2022-11-08T13:55:57.978Z,71.66
2022-11-08T13:58:01.169Z,72.14
2022-11-08T14:00:05.501Z,72.08
2022-11-08T14:02:39.548Z,71.90
2022-11-08T14:04:41.434Z,72.80
2022-11-08T14:07:03.731Z,71.62
2022-11-08T14:09:20.631Z,70.30
2022-11-08T14:11:50.338Z,68.69
2022-11-08T14:14:11.655Z,68.95
2022-11-08T14:16:18.727Z,68.98
2022-11-08T14:18:32.982Z,68.13
2022-11-08T14:20:43.298Z,68.87
2022-11-08T14:22:49.966Z,68.71
2022-11-08T14:24:54.998Z,68.65
2022-11-08T14:26:57.001Z,68.95
2022-11-08T14:29:00.222Z,69.43
2022-11-08T14:31:07.272Z,69.73
2022-11-08T14:33:22.905Z,70.59
2022-11-08T14:35:25.887Z,70.37
2022-11-08T14:37:28.265Z,71.62
2022-11-08T14:39:36.352Z,71.50
2022-11-08T14:41:39.579Z,71.23
2022-11-08T14:43:46.642Z,71.79
2022-11-08T14:45:49.131Z,71.92
2022-11-08T14:48:01.774Z,72.13
2022-11-08T14:50:03.616Z,72.80
2022-11-08T14:52:11.349Z,72.97
2022-11-08T14:54:25.182Z,72.46
2022-11-08T14:56:36.253Z,72.88
2022-11-08T14:58:37.929Z,73.17
2022-11-08T15:00:43.185Z,73.46
2022-11-08T15:02:49.637Z,73.72
2022-11-08T15:04:51.294Z,72.87
2022-11-08T15:06:56.310Z,72.04
2022-11-08T15:08:58.577Z,72.25
2022-11-08T15:11:11.011Z,72.56
2022-11-08T15:13:12.708Z,72.55
2022-11-08T15:15:20.502Z,72.18
2022-11-08T15:17:39.633Z,71.88
2022-11-08T15:19:44.360Z,71.48
2022-11-08T15:21:52.126Z,71.77
2022-11-08T15:24:04.006Z,70.90
2022-11-08T15:26:05.745Z,70.57
2022-11-08T15:28:16.503Z,70.56
2022-11-08T15:30:20.007Z,69.98
2022-11-08T15:32:22.669Z,69.49
2022-11-08T15:34:39.074Z,69.30
2022-11-08T15:36:40.741Z,69.07
2022-11-08T15:38:47.414Z,69.13
2022-11-08T15:40:54.463Z,68.05
2022-11-08T15:42:56.403Z,67.80
2022-11-08T15:45:21.947Z,67.25
2022-11-08T15:47:41.543Z,66.78
2022-11-08T15:49:45.264Z,66.92
2022-11-08T15:51:49.796Z,66.87
2022-11-08T15:53:51.937Z,66.31
2022-11-08T15:56:01.810Z,66.12
2022-11-08T15:58:04.883Z,65.76
2022-11-08T16:00:07.193Z,65.76
2022-11-08T16:02:14.578Z,65.46
2022-11-08T16:04:16.213Z,65.63
2022-11-08T16:06:18.013Z,65.74
2022-11-08T16:08:21.149Z,65.83
2022-11-08T16:10:50.872Z,65.58
2022-11-08T16:12:53.346Z,66.10
2022-11-08T16:14:58.008Z,66.44
2022-11-08T16:16:59.697Z,66.50
2022-11-08T16:19:01.529Z,66.67
2022-11-08T16:21:03.170Z,67.09
2022-11-08T16:23:06.981Z,66.99
2022-11-08T16:25:08.881Z,67.49
2022-11-08T16:27:10.686Z,67.74
2022-11-08T16:29:19.654Z,67.71
2022-11-08T16:31:21.333Z,67.88
2022-11-08T16:33:25.435Z,68.26
2022-11-08T16:35:27.192Z,68.28
2022-11-08T16:37:28.886Z,68.51
2022-11-08T16:39:30.553Z,69.29
2022-11-08T16:41:42.643Z,68.92
2022-11-08T16:43:45.058Z,68.58
2022-11-08T16:48:16.354Z,69.00
2022-11-08T16:50:21.262Z,69.82
2022-11-08T16:52:22.869Z,70.19
2022-11-08T16:54:28.411Z,70.80
2022-11-08T16:56:30.244Z,71.47
2022-11-08T16:58:31.989Z,72.07
2022-11-08T17:00:33.896Z,72.78
2022-11-08T17:02:38.372Z,72.28
2022-11-08T17:04:40.022Z,72.83
2022-11-08T17:06:41.703Z,73.03
2022-11-08T17:08:44.132Z,72.91
2022-11-08T17:10:46.028Z,72.98
2022-11-08T17:12:48.545Z,73.18
2022-11-08T17:14:50.147Z,73.47
2022-11-08T17:16:53.735Z,73.62
2022-11-08T17:18:55.913Z,73.92
2022-11-08T17:21:07.421Z,73.89
2022-11-08T17:23:18.283Z,73.80
2022-11-08T17:25:22.380Z,74.08
2022-11-08T17:27:24.000Z,73.88
2022-11-08T17:29:25.825Z,73.81
2022-11-08T17:31:27.983Z,73.82
2022-11-08T17:33:29.638Z,74.34
2022-11-08T17:35:31.253Z,73.80
2022-11-08T17:37:33.759Z,74.47
2022-11-08T17:39:35.349Z,74.09
2022-11-08T17:41:38.341Z,73.69
2022-11-08T17:43:41.390Z,74.04
2022-11-08T17:45:43.156Z,73.58
2022-11-08T17:47:44.825Z,73.04
2022-11-08T17:49:46.417Z,72.63
2022-11-08T17:51:48.019Z,72.42
2022-11-08T17:53:49.685Z,72.10
2022-11-08T17:55:56.491Z,71.96
2022-11-08T17:57:59.021Z,72.26
2022-11-08T18:00:00.720Z,72.03
2022-11-08T18:02:03.303Z,72.08
2022-11-08T18:04:05.495Z,72.05
2022-11-08T18:06:11.567Z,72.19
2022-11-08T18:08:13.240Z,72.17
2022-11-08T18:10:16.573Z,72.12
2022-11-08T18:12:18.333Z,72.17
2022-11-08T18:14:28.078Z,72.06
2022-11-08T18:16:30.213Z,72.13
2022-11-08T18:18:31.817Z,71.72
2022-11-08T18:20:33.474Z,71.54
2022-11-08T18:22:35.220Z,71.22
2022-11-08T18:24:36.939Z,71.45
2022-11-08T18:26:39.189Z,71.30
2022-11-08T18:28:42.761Z,71.04
2022-11-08T18:30:48.123Z,70.88
2022-11-08T18:32:50.043Z,70.81
